Time;durP1;ratioP1;P1;durP2;ratioP2;P2;SDS_P1;SDS_P2;PMS_P1;PMS_P2;Temp;Humidity;BMP_temperature;BMP_pressure;BME280_temperature;BME280_humidity;BME280_pressure;Samples;Min_cycle;Max_cycle;Signal;HPM_P1;HPM_P2
2023/08/26 00:01:18;;;;;;;26.77;18.50;;;28.10;83.70;;;;;;5094555;28;20243;-67
2023/08/26 00:04:22;;;;;;;32.17;19.30;;;28.10;84.30;;;;;;5093764;28;20039;-67
2023/08/26 00:07:26;;;;;;;32.88;19.73;;;28.10;84.50;;;;;;5093812;28;20043;-69
2023/08/26 00:10:33;;;;;;;36.10;19.98;;;28.10;85.70;;;;;;5094283;28;20403;-67
2023/08/26 00:13:37;;;;;;;32.70;19.85;;;28.10;86.40;;;;;;5094342;28;20043;-67
2023/08/26 00:16:41;;;;;;;27.40;19.98;;;28.10;86.00;;;;;;5093497;28;20047;-67
2023/08/26 00:19:45;;;;;;;31.90;20.67;;;28.10;85.70;;;;;;5093866;28;20047;-67
2023/08/26 00:22:48;;;;;;;29.08;19.45;;;28.10;86.10;;;;;;5093791;28;20055;-68
2023/08/26 00:25:52;;;;;;;31.77;23.48;;;28.10;86.10;;;;;;5093861;28;20043;-68
2023/08/26 00:28:56;;;;;;;30.65;25.55;;;28.00;87.50;;;;;;5093749;28;20039;-68
2023/08/26 00:32:00;;;;;;;25.75;19.80;;;28.00;89.60;;;;;;5092461;28;20043;-68
2023/08/26 00:35:05;;;;;;;29.50;21.15;;;27.90;88.20;;;;;;5094048;28;20063;-68
2023/08/26 00:38:08;;;;;;;25.92;22.27;;;27.90;88.80;;;;;;5092916;28;20055;-68
2023/08/26 00:41:13;;;;;;;30.98;23.40;;;27.90;89.30;;;;;;5093008;28;20051;-68
2023/08/26 00:44:18;;;;;;;32.30;22.67;;;27.80;90.00;;;;;;5093874;28;20059;-68
2023/08/26 00:47:22;;;;;;;34.67;23.30;;;27.80;90.20;;;;;;5092834;28;20036;-69
2023/08/26 00:50:27;;;;;;;31.58;22.77;;;27.70;90.20;;;;;;5092801;28;20051;-68
2023/08/26 00:53:31;;;;;;;27.05;22.70;;;27.70;90.10;;;;;;5093008;28;20039;-67
2023/08/26 00:56:36;;;;;;;31.10;22.85;;;27.70;90.30;;;;;;5092940;28;20404;-68
2023/08/26 00:59:40;;;;;;;42.28;24.35;;;27.70;90.10;;;;;;5093715;28;20039;-68
2023/08/26 01:02:45;;;;;;;30.67;25.15;;;27.60;90.20;;;;;;5092391;28;20051;-67
2023/08/26 01:05:49;;;;;;;36.15;26.13;;;27.60;90.80;;;;;;5092275;28;20039;-67
2023/08/26 01:08:53;;;;;;;33.85;25.50;;;27.60;90.70;;;;;;5092744;28;20110;-68
2023/08/26 01:12:03;;;;;;;38.58;25.17;;;27.70;90.70;;;;;;5092177;28;20047;-68
2023/08/26 01:15:11;;;;;;;38.60;26.58;;;27.60;90.50;;;;;;5092478;28;20035;-69
2023/08/26 01:18:16;;;;;;;29.77;25.98;;;27.70;91.20;;;;;;5092184;28;20502;-67
2023/08/26 01:21:23;;;;;;;36.58;26.88;;;27.70;91.40;;;;;;5092156;28;20051;-67
2023/08/26 01:24:27;;;;;;;31.85;26.38;;;27.70;91.20;;;;;;5093101;28;20035;-67
2023/08/26 01:27:31;;;;;;;32.65;26.77;;;27.50;91.50;;;;;;5092066;28;20039;-69
2023/08/26 01:30:35;;;;;;;33.80;27.00;;;27.50;91.30;;;;;;5092135;28;20039;-68
2023/08/26 01:34:07;;;;;;;32.65;24.95;;;27.50;91.30;;;;;;5091653;28;20051;-68
2023/08/26 01:37:11;;;;;;;32.38;25.35;;;27.40;91.40;;;;;;5092042;28;20062;-68
2023/08/26 01:40:18;;;;;;;29.83;26.08;;;27.40;91.30;;;;;;5091679;28;20047;-67
2023/08/26 01:43:23;;;;;;;30.10;25.00;;;27.40;91.40;;;;;;5092257;28;20054;-67
2023/08/26 01:46:37;;;;;;;33.85;23.65;;;27.40;91.30;;;;;;5091630;28;20063;-67
2023/08/26 01:49:44;;;;;;;31.63;24.63;;;27.40;91.20;;;;;;5091868;28;20066;-67
2023/08/26 01:52:48;;;;;;;33.95;24.60;;;27.30;91.30;;;;;;5079852;28;20047;-67
2023/08/26 01:55:52;;;;;;;31.38;24.33;;;27.20;91.30;;;;;;5091554;28;20043;-67
2023/08/26 01:58:55;;;;;;;42.83;25.30;;;27.30;91.20;;;;;;5091224;28;20043;-67
2023/08/26 02:02:00;;;;;;;37.28;24.80;;;27.20;91.20;;;;;;5091259;28;20518;-67
2023/08/26 02:05:04;;;;;;;35.20;24.85;;;27.30;91.20;;;;;;5091386;28;20043;-67
2023/08/26 02:08:11;;;;;;;35.15;24.63;;;27.30;91.40;;;;;;5092075;28;20051;-67
2023/08/26 02:11:15;;;;;;;29.98;25.05;;;27.30;91.10;;;;;;5092197;28;20051;-67
2023/08/26 02:14:19;;;;;;;33.83;25.20;;;27.30;91.20;;;;;;5091337;28;20284;-67
2023/08/26 02:17:23;;;;;;;31.42;25.25;;;27.20;91.20;;;;;;5092132;28;20043;-68
2023/08/26 02:20:26;;;;;;;34.20;25.55;;;27.10;91.30;;;;;;5091341;28;20047;-68
2023/08/26 02:23:30;;;;;;;39.75;25.95;;;26.50;91.50;;;;;;5079312;28;20051;-67
2023/08/26 02:26:36;;;;;;;34.00;27.25;;;27.10;91.60;;;;;;5092016;28;20674;-68
2023/08/26 02:29:40;;;;;;;36.22;27.20;;;27.00;91.90;;;;;;5091139;28;20494;-68
2023/08/26 02:32:44;;;;;;;35.95;26.75;;;27.10;91.90;;;;;;5079085;28;20051;-67
2023/08/26 02:35:48;;;;;;;33.42;27.10;;;27.00;92.10;;;;;;5091881;28;20063;-68
2023/08/26 02:38:52;;;;;;;35.83;28.02;;;27.00;92.10;;;;;;5091837;28;20046;-67
2023/08/26 02:41:57;;;;;;;41.58;28.50;;;27.00;92.20;;;;;;5091491;28;20407;-66
2023/08/26 02:45:03;;;;;;;34.90;27.58;;;27.00;92.30;;;;;;5091056;28;20055;-67
2023/08/26 02:48:07;;;;;;;40.45;29.35;;;27.00;92.30;;;;;;5090607;28;20043;-67
2023/08/26 02:51:10;;;;;;;42.92;26.48;;;27.00;92.30;;;;;;5091332;28;20510;-67
2023/08/26 02:54:14;;;;;;;35.50;29.00;;;26.90;92.40;;;;;;5090733;28;20507;-67
2023/08/26 02:57:19;;;;;;;36.22;27.83;;;27.00;92.60;;;;;;5091521;28;20054;-68
2023/08/26 03:00:23;;;;;;;31.45;26.90;;;27.00;92.30;;;;;;5090335;28;20047;-66
2023/08/26 03:03:27;;;;;;;33.92;29.55;;;26.80;92.50;;;;;;5091260;28;20059;-67
2023/08/26 03:06:31;;;;;;;36.78;29.08;;;26.70;92.80;;;;;;5090194;28;20035;-67
2023/08/26 03:09:34;;;;;;;36.53;29.20;;;26.60;93.30;;;;;;5091109;28;20047;-67
2023/08/26 03:12:38;;;;;;;41.97;31.27;;;26.70;93.10;;;;;;5091071;28;20400;-67
2023/08/26 03:15:42;;;;;;;37.45;31.20;;;26.70;93.20;;;;;;5090218;28;20043;-67
2023/08/26 03:18:46;;;;;;;34.13;30.35;;;26.70;93.30;;;;;;5091243;28;20047;-67
2023/08/26 03:21:50;;;;;;;40.42;32.00;;;26.70;93.50;;;;;;5090336;28;20545;-67
2023/08/26 03:24:53;;;;;;;41.10;34.83;;;26.80;93.60;;;;;;5090196;28;20055;-67
2023/08/26 03:27:58;;;;;;;49.03;33.17;;;26.70;93.60;;;;;;5090217;28;20043;-67
2023/08/26 03:31:04;;;;;;;46.78;33.88;;;26.50;94.00;;;;;;5090322;28;20043;-67
2023/08/26 03:34:08;;;;;;;38.63;32.35;;;26.50;94.20;;;;;;5090434;28;20051;-67
2023/08/26 03:37:12;;;;;;;43.28;33.17;;;26.40;94.20;;;;;;5091072;28;20043;-67
2023/08/26 03:40:22;;;;;;;40.47;32.72;;;26.40;94.10;;;;;;5090072;28;20047;-67
2023/08/26 03:43:27;;;;;;;40.20;32.20;;;26.40;94.10;;;;;;5089913;28;20055;-67
2023/08/26 03:46:32;;;;;;;36.92;32.03;;;26.30;94.20;;;;;;5090260;28;20514;-67
2023/08/26 03:49:36;;;;;;;40.85;32.33;;;26.50;94.10;;;;;;5091107;28;20193;-67
2023/08/26 03:52:41;;;;;;;49.20;33.28;;;26.40;94.00;;;;;;5089857;28;20047;-67
2023/08/26 03:55:48;;;;;;;47.15;33.33;;;26.40;94.20;;;;;;5090137;28;20039;-67
2023/08/26 03:58:56;;;;;;;36.83;31.13;;;26.40;94.20;;;;;;5090728;28;20051;-67
2023/08/26 04:01:59;;;;;;;36.60;30.30;;;26.50;94.30;;;;;;5090560;28;20043;-67
2023/08/26 04:05:04;;;;;;;41.47;31.98;;;26.60;94.10;;;;;;5093750;28;20055;-67
2023/08/26 04:08:11;;;;;;;36.92;32.15;;;26.50;94.00;;;;;;5093905;28;20050;-67
2023/08/26 04:11:17;;;;;;;42.63;31.17;;;26.50;93.80;;;;;;5093680;28;20075;-68
2023/08/26 04:14:21;;;;;;;35.58;30.60;;;26.30;93.90;;;;;;5093616;28;20043;-67
2023/08/26 04:17:25;;;;;;;41.83;29.77;;;26.30;94.00;;;;;;5094428;28;20043;-68
2023/08/26 04:20:29;;;;;;;31.10;27.67;;;26.30;94.00;;;;;;5081818;28;20054;-67
2023/08/26 04:23:33;;;;;;;30.92;26.55;;;26.40;93.90;;;;;;5093372;28;20518;-68
2023/08/26 04:26:37;;;;;;;37.40;28.40;;;26.40;93.80;;;;;;5081790;28;20518;-68
2023/08/26 04:29:41;;;;;;;35.08;26.88;;;26.40;93.50;;;;;;5094116;28;20043;-67
2023/08/26 04:32:47;;;;;;;33.88;28.38;;;26.40;93.40;;;;;;5093962;28;20059;-68
2023/08/26 04:35:51;;;;;;;29.73;25.95;;;26.00;93.60;;;;;;5093221;28;20071;-67
2023/08/26 04:38:56;;;;;;;31.98;26.20;;;26.00;94.20;;;;;;5093331;28;20177;-67
2023/08/26 04:42:01;;;;;;;33.83;25.92;;;26.00;94.10;;;;;;5092872;28;20051;-67
2023/08/26 04:45:05;;;;;;;32.45;25.90;;;26.20;93.70;;;;;;5093832;28;20043;-67
2023/08/26 04:48:09;;;;;;;33.80;28.15;;;26.20;93.70;;;;;;5093118;28;20043;-66
2023/08/26 04:51:16;;;;;;;29.92;25.63;;;26.20;93.60;;;;;;5093121;28;20043;-67
2023/08/26 04:54:19;;;;;;;32.55;25.70;;;26.10;93.60;;;;;;5092775;28;20043;-67
2023/08/26 04:57:23;;;;;;;31.95;27.27;;;26.20;93.80;;;;;;5093852;28;20051;-67
2023/08/26 05:00:28;;;;;;;39.20;28.10;;;26.30;93.50;;;;;;5093287;28;20039;-67
2023/08/26 05:03:32;;;;;;;39.80;28.02;;;26.30;93.60;;;;;;5092513;28;20051;-66
2023/08/26 05:06:36;;;;;;;38.97;28.08;;;26.20;93.80;;;;;;5092607;28;20039;-68
2023/08/26 05:09:43;;;;;;;31.45;26.05;;;26.30;94.20;;;;;;5081231;28;20047;-67
2023/08/26 05:12:47;;;;;;;30.27;26.48;;;26.60;93.80;;;;;;5092330;28;20525;-68
2023/08/26 05:15:51;;;;;;;36.38;29.38;;;26.90;93.30;;;;;;5092087;28;20051;-68
2023/08/26 05:18:55;;;;;;;32.00;26.75;;;27.10;92.90;;;;;;5092116;28;20048;-68
2023/08/26 05:22:01;;;;;;;37.92;28.45;;;27.30;92.80;;;;;;5092626;28;20047;-67
2023/08/26 05:25:06;;;;;;;39.88;29.13;;;27.40;92.60;;;;;;5080709;28;20110;-68
2023/08/26 05:28:10;;;;;;;51.15;32.65;;;27.80;92.40;;;;;;5092221;28;20039;-68
2023/08/26 05:31:15;;;;;;;47.90;37.70;;;28.00;92.20;;;;;;5080345;28;20055;-69
2023/08/26 05:34:19;;;;;;;49.30;31.73;;;28.60;91.70;;;;;;5092032;28;20055;-68
2023/08/26 05:37:24;;;;;;;33.95;29.92;;;29.50;90.40;;;;;;5091905;28;20532;-69
2023/08/26 05:40:29;;;;;;;31.20;27.98;;;29.90;89.10;;;;;;5091865;28;20043;-68
2023/08/26 05:43:32;;;;;;;34.47;27.45;;;30.40;89.20;;;;;;5080032;28;20051;-68
2023/08/26 05:46:37;;;;;;;33.53;28.63;;;30.60;88.50;;;;;;5080274;28;20039;-68
2023/08/26 05:49:41;;;;;;;35.72;30.38;;;30.70;87.70;;;;;;5093011;28;20532;-69
2023/08/26 05:52:45;;;;;;;38.60;32.08;;;30.60;88.60;;;;;;5091707;28;20039;-67
2023/08/26 05:55:49;;;;;;;49.28;31.70;;;30.40;88.70;;;;;;5091755;28;20051;-68
2023/08/26 05:58:54;;;;;;;35.35;30.30;;;30.20;89.60;;;;;;5091660;28;20399;-69
2023/08/26 06:01:58;;;;;;;37.95;30.77;;;29.90;90.10;;;;;;5091588;28;20047;-68
2023/08/26 06:05:02;;;;;;;36.03;32.05;;;29.70;90.60;;;;;;5091473;28;20115;-69
2023/08/26 06:08:06;;;;;;;40.95;30.67;;;29.50;90.70;;;;;;5091665;28;20039;-68
2023/08/26 06:11:10;;;;;;;41.50;32.08;;;29.70;90.50;;;;;;5091204;28;20047;-67
2023/08/26 06:14:14;;;;;;;36.38;31.60;;;29.60;90.30;;;;;;5091420;28;20055;-68
2023/08/26 06:17:18;;;;;;;40.05;31.65;;;29.50;90.50;;;;;;5092292;28;20047;-69
2023/08/26 06:20:25;;;;;;;42.38;30.52;;;29.40;90.60;;;;;;5090968;28;20039;-68
2023/08/26 06:23:30;;;;;;;41.10;30.50;;;29.30;90.80;;;;;;5090740;28;20047;-69
2023/08/26 06:26:34;;;;;;;33.20;29.60;;;29.40;90.90;;;;;;5090561;28;20043;-68
2023/08/26 06:29:44;;;;;;;49.53;28.42;;;29.40;90.90;;;;;;5079286;28;20063;-68
2023/08/26 06:32:51;;;;;;;38.55;26.13;;;29.70;90.80;;;;;;5090924;28;20054;-74
2023/08/26 06:35:57;;;;;;;52.17;26.48;;;30.20;90.10;;;;;;5091405;28;20043;-74
2023/08/26 06:39:03;;;;;;;35.55;24.17;;;30.60;88.60;;;;;;5090708;28;20552;-73
2023/08/26 06:42:08;;;;;;;38.50;22.83;;;30.80;88.10;;;;;;5090559;28;20043;-74
2023/08/26 06:45:18;;;;;;;31.80;21.27;;;30.90;87.50;;;;;;5090940;28;20035;-73
2023/08/26 06:48:22;;;;;;;39.35;19.75;;;32.10;85.20;;;;;;5091172;28;20392;-74
2023/08/26 06:51:27;;;;;;;25.33;18.63;;;33.40;82.00;;;;;;5090498;28;20050;-73
2023/08/26 06:54:33;;;;;;;32.45;17.60;;;34.40;80.00;;;;;;5091739;28;20043;-74
2023/08/26 06:57:37;;;;;;;29.00;17.77;;;34.90;77.70;;;;;;5090597;28;20047;-74
2023/08/26 07:00:42;;;;;;;22.95;14.80;;;35.30;77.00;;;;;;5091483;28;20494;-74
2023/08/26 07:03:46;;;;;;;18.35;15.55;;;35.50;76.50;;;;;;5091092;28;20071;-75
2023/08/26 07:06:50;;;;;;;23.70;14.95;;;35.80;76.20;;;;;;5091194;28;20042;-73
2023/08/26 07:09:54;;;;;;;16.85;12.82;;;35.90;76.20;;;;;;5091633;28;20051;-78
2023/08/26 07:13:01;;;;;;;18.05;13.45;;;36.30;75.50;;;;;;5091861;28;20043;-79
2023/08/26 07:16:05;;;;;;;15.80;13.93;;;36.50;75.00;;;;;;5092082;28;20097;-76
2023/08/26 07:19:09;;;;;;;17.55;12.90;;;36.40;74.80;;;;;;5093459;28;20043;-78
2023/08/26 07:22:13;;;;;;;16.98;13.07;;;36.50;74.80;;;;;;5094190;28;20391;-75
2023/08/26 07:25:17;;;;;;;16.90;13.00;;;36.80;74.50;;;;;;5092343;28;20051;-75
2023/08/26 07:28:22;;;;;;;27.55;14.63;;;37.00;73.80;;;;;;5092123;28;20067;-71
2023/08/26 07:31:26;;;;;;;18.73;14.30;;;37.00;73.80;;;;;;5091462;28;20059;-78
2023/08/26 07:34:30;;;;;;;20.55;13.50;;;36.90;73.40;;;;;;5094385;28;20048;-84
2023/08/26 07:37:38;;;;;;;16.60;13.60;;;37.00;74.00;;;;;;5094426;28;20079;-80
2023/08/26 07:40:42;;;;;;;14.88;13.25;;;37.20;73.90;;;;;;5097518;28;20062;-78
2023/08/26 07:43:46;;;;;;;19.88;13.98;;;37.50;72.80;;;;;;5096026;28;20055;-79
2023/08/26 07:46:51;;;;;;;20.58;13.82;;;37.60;72.60;;;;;;5096115;28;20063;-75
2023/08/26 07:49:55;;;;;;;18.45;14.05;;;37.60;72.60;;;;;;5095730;28;20047;-73
2023/08/26 07:52:59;;;;;;;21.83;13.85;;;37.40;72.70;;;;;;5095317;28;20042;-75
2023/08/26 07:56:03;;;;;;;24.90;13.70;;;37.50;72.90;;;;;;5095420;28;20035;-76
2023/08/26 07:59:07;;;;;;;15.70;13.93;;;37.60;73.10;;;;;;5095544;28;20047;-73
2023/08/26 08:02:11;;;;;;;17.38;13.68;;;37.70;72.20;;;;;;5095201;28;20380;-78
2023/08/26 08:05:14;;;;;;;30.13;15.18;;;38.10;72.10;;;;;;5095630;28;20043;-77
2023/08/26 08:08:18;;;;;;;24.67;15.35;;;37.20;72.50;;;;;;5095569;28;20361;-76
2023/08/26 08:11:22;;;;;;;21.33;15.15;;;36.50;74.00;;;;;;5095112;28;20507;-76
2023/08/26 08:14:26;;;;;;;21.08;15.38;;;36.10;75.00;;;;;;5094748;28;20036;-76
2023/08/26 08:17:31;;;;;;;23.95;15.68;;;35.50;75.60;;;;;;5095167;28;20047;-74
2023/08/26 08:20:35;;;;;;;25.85;15.65;;;35.00;76.30;;;;;;5094834;28;20039;-74
2023/08/26 08:23:43;;;;;;;22.13;14.75;;;34.70;77.30;;;;;;5094134;28;20526;-77
2023/08/26 08:26:47;;;;;;;21.00;14.98;;;34.80;77.90;;;;;;5095288;28;20380;-80
2023/08/26 08:29:51;;;;;;;22.20;15.15;;;34.90;77.00;;;;;;5095999;28;20494;-71
2023/08/26 08:32:56;;;;;;;21.33;15.43;;;35.70;76.20;;;;;;5096631;28;20512;-81
2023/08/26 08:36:01;;;;;;;19.55;13.98;;;36.40;74.50;;;;;;5094789;28;20047;-76
2023/08/26 08:39:06;;;;;;;31.05;15.30;;;37.50;73.40;;;;;;5095899;28;20047;-79
2023/08/26 08:42:13;;;;;;;21.67;14.82;;;38.20;71.70;;;;;;5094566;28;20051;-75
2023/08/26 08:45:18;;;;;;;18.65;14.23;;;38.40;70.50;;;;;;5095412;28;20125;-77
2023/08/26 08:48:23;;;;;;;18.92;14.63;;;38.30;70.40;;;;;;5096298;28;20403;-74
2023/08/26 08:51:28;;;;;;;17.38;14.35;;;38.30;70.80;;;;;;5095338;28;20039;-80
2023/08/26 08:54:34;;;;;;;20.13;15.00;;;38.40;70.90;;;;;;5094584;28;20391;-78
2023/08/26 08:57:40;;;;;;;18.65;13.65;;;38.50;70.50;;;;;;5096741;28;20039;-80
2023/08/26 09:00:44;;;;;;;22.33;14.13;;;38.30;69.90;;;;;;5093234;28;20051;-74
2023/08/26 09:03:48;;;;;;;20.02;13.18;;;38.30;70.00;;;;;;5094345;28;20524;-79
2023/08/26 09:06:53;;;;;;;16.75;14.80;;;38.80;68.70;;;;;;5098005;28;20106;-83
2023/08/26 09:09:57;;;;;;;16.95;12.68;;;39.10;68.00;;;;;;5096205;28;20043;-76
2023/08/26 09:13:03;;;;;;;14.60;13.20;;;39.30;67.10;;;;;;5094610;28;20063;-77
2023/08/26 09:16:07;;;;;;;22.50;12.60;;;39.40;67.50;;;;;;5094730;28;20494;-75
2023/08/26 09:19:12;;;;;;;23.30;14.82;;;39.50;67.00;;;;;;5093971;28;20035;-78
2023/08/26 09:22:18;;;;;;;49.88;44.78;;;39.00;68.20;;;;;;5094431;28;20043;-76
2023/08/26 09:25:22;;;;;;;22.73;14.38;;;38.30;70.00;;;;;;5094203;28;20138;-77
2023/08/26 09:28:27;;;;;;;17.95;13.38;;;37.80;70.10;;;;;;5093838;28;20043;-77
2023/08/26 09:31:31;;;;;;;16.88;13.65;;;37.30;70.80;;;;;;5093646;28;20052;-77
2023/08/26 09:34:36;;;;;;;19.13;12.45;;;37.00;70.80;;;;;;5094083;28;20047;-78
2023/08/26 09:37:46;;;;;;;17.00;13.95;;;36.80;71.10;;;;;;5093843;28;20043;-77
2023/08/26 09:40:49;;;;;;;22.67;15.90;;;36.60;72.20;;;;;;5093992;28;20039;-78
2023/08/26 09:43:53;;;;;;;31.27;16.20;;;36.20;72.30;;;;;;5094780;28;20055;-77
2023/08/26 09:46:57;;;;;;;21.35;16.10;;;36.00;72.80;;;;;;5094450;28;20506;-76
2023/08/26 09:50:01;;;;;;;19.10;14.88;;;35.90;73.20;;;;;;5095831;28;20055;-77
2023/08/26 09:53:05;;;;;;;26.65;14.88;;;36.00;73.70;;;;;;5093934;28;20047;-77
2023/08/26 09:56:09;;;;;;;17.58;14.18;;;36.10;74.90;;;;;;5092581;28;20039;-77
2023/08/26 09:59:13;;;;;;;17.35;14.27;;;36.20;75.30;;;;;;5092722;28;20070;-76
2023/08/26 10:02:22;;;;;;;13.93;12.38;;;36.40;75.60;;;;;;5092467;28;20043;-76
2023/08/26 10:05:28;;;;;;;18.65;14.10;;;36.50;75.90;;;;;;5092589;28;20043;-77
2023/08/26 10:08:35;;;;;;;19.58;14.35;;;36.50;75.70;;;;;;5093152;28;20055;-77
2023/08/26 10:11:44;;;;;;;15.43;13.60;;;36.50;75.30;;;;;;5092574;28;20055;-75
2023/08/26 10:14:53;;;;;;;28.27;14.82;;;36.50;75.40;;;;;;5093113;28;20043;-75
2023/08/26 10:18:11;;;;;;;16.50;12.85;;;36.60;75.10;;;;;;5092611;28;20043;-76
2023/08/26 10:21:15;;;;;;;22.15;13.98;;;36.60;75.30;;;;;;5092777;28;20391;-75
2023/08/26 10:24:20;;;;;;;15.68;13.75;;;36.60;74.60;;;;;;5092280;28;20054;-76
2023/08/26 10:27:27;;;;;;;20.17;12.85;;;36.60;74.50;;;;;;5092811;28;20047;-78
2023/08/26 10:30:31;;;;;;;16.90;12.98;;;36.50;74.30;;;;;;5092288;28;20063;-76
2023/08/26 10:33:57;;;;;;;17.92;12.43;;;36.50;74.80;;;;;;5092186;28;20052;-77
2023/08/26 10:37:01;;;;;;;13.18;11.98;;;36.60;74.40;;;;;;5091778;28;20066;-76
2023/08/26 10:40:09;;;;;;;15.45;12.57;;;36.60;73.60;;;;;;5092160;28;20039;-78
2023/08/26 10:43:13;;;;;;;16.48;13.82;;;36.70;73.30;;;;;;5092079;28;20050;-78
2023/08/26 10:46:17;;;;;;;18.10;12.90;;;36.70;72.50;;;;;;5092121;28;20396;-74
2023/08/26 10:49:30;;;;;;;19.42;13.10;;;36.60;72.00;;;;;;5092935;28;20055;-78
2023/08/26 10:52:34;;;;;;;15.57;13.43;;;36.60;72.30;;;;;;5092818;28;20663;-76
2023/08/26 10:55:38;;;;;;;15.77;12.98;;;36.60;71.20;;;;;;5093527;28;20490;-75
2023/08/26 10:58:43;;;;;;;26.08;14.27;;;36.60;71.80;;;;;;5091798;28;20055;-76
2023/08/26 11:01:50;;;;;;;16.65;13.30;;;36.60;73.00;;;;;;5092488;28;20071;-75
2023/08/26 11:04:55;;;;;;;18.67;13.48;;;36.50;73.80;;;;;;5091684;28;20059;-75
2023/08/26 11:08:02;;;;;;;19.42;14.73;;;36.50;74.90;;;;;;5091577;28;20039;-75
2023/08/26 11:11:12;;;;;;;19.77;14.38;;;36.40;74.20;;;;;;5092274;28;20055;-76
2023/08/26 11:14:16;;;;;;;15.75;13.52;;;36.40;75.90;;;;;;5091771;28;20499;-76
2023/08/26 11:17:20;;;;;;;18.70;14.57;;;36.30;76.00;;;;;;5092015;28;20043;-77
2023/08/26 11:20:24;;;;;;;24.95;15.05;;;36.20;75.60;;;;;;5093427;28;20047;-76
2023/08/26 11:23:28;;;;;;;15.77;14.10;;;36.20;75.70;;;;;;5092269;28;20049;-77
2023/08/26 11:26:34;;;;;;;20.33;14.75;;;36.10;76.60;;;;;;5091675;28;20051;-77
2023/08/26 11:29:38;;;;;;;15.38;13.95;;;36.10;76.00;;;;;;5092149;28;20102;-77
2023/08/26 11:32:42;;;;;;;17.60;15.10;;;36.00;76.10;;;;;;5091656;28;20059;-76
2023/08/26 11:35:47;;;;;;;17.38;14.90;;;36.00;76.50;;;;;;5090932;28;20039;-75
2023/08/26 11:38:51;;;;;;;20.15;15.13;;;36.00;77.40;;;;;;5092489;28;20043;-76
2023/08/26 11:41:55;;;;;;;20.42;17.33;;;36.00;77.20;;;;;;5092430;28;20055;-75
2023/08/26 11:44:59;;;;;;;20.20;16.65;;;35.90;77.60;;;;;;5092065;28;20055;-77
2023/08/26 11:48:04;;;;;;;20.80;16.85;;;35.90;77.40;;;;;;5092451;28;20391;-76
2023/08/26 11:51:08;;;;;;;26.77;17.35;;;35.90;78.10;;;;;;5091830;28;20475;-76
2023/08/26 11:54:30;;;;;;;18.70;16.67;;;35.90;78.80;;;;;;5092093;28;20490;-77
2023/08/26 11:57:39;;;;;;;18.98;16.95;;;35.80;78.50;;;;;;5091664;28;20054;-76
2023/08/26 12:00:43;;;;;;;24.70;18.95;;;35.70;78.60;;;;;;5094506;28;20039;-82
2023/08/26 12:03:48;;;;;;;18.83;16.80;;;35.90;79.30;;;;;;5094979;28;20074;-84
2023/08/26 12:06:52;;;;;;;17.90;15.73;;;36.90;77.40;;;;;;5095218;28;20059;-79
2023/08/26 12:09:57;;;;;;;17.35;15.35;;;37.50;76.50;;;;;;5094723;28;20055;-80
2023/08/26 12:13:04;;;;;;;17.98;15.88;;;38.70;74.20;;;;;;5093065;28;20051;-81
2023/08/26 12:16:09;;;;;;;18.38;15.80;;;39.00;73.30;;;;;;5094766;28;20035;-82
2023/08/26 12:19:18;;;;;;;19.52;15.40;;;38.80;73.80;;;;;;5093343;28;20039;-79
2023/08/26 12:22:23;;;;;;;20.73;15.23;;;38.70;74.00;;;;;;5093878;28;20043;-82
2023/08/26 12:25:41;;;;;;;21.35;14.85;;;38.80;74.30;;;;;;5096989;28;20533;-82
2023/08/26 12:28:49;;;;;;;26.02;15.13;;;38.80;72.70;;;;;;5096034;28;20044;-82
2023/08/26 12:31:53;;;;;;;18.75;15.27;;;38.90;72.70;;;;;;5098591;28;20063;-79
2023/08/26 12:34:57;;;;;;;17.00;14.63;;;39.00;72.60;;;;;;5100171;28;20051;-82
2023/08/26 12:38:05;;;;;;;15.32;13.93;;;39.00;72.70;;;;;;5097364;28;20051;-81
2023/08/26 12:41:09;;;;;;;19.95;15.43;;;39.20;72.00;;;;;;5099287;28;20047;-81
2023/08/26 12:44:13;;;;;;;16.73;15.00;;;39.00;72.60;;;;;;5094740;28;20582;-75
2023/08/26 12:47:17;;;;;;;19.90;15.13;;;38.50;73.30;;;;;;5095464;28;20523;-79
2023/08/26 12:50:20;;;;;;;17.00;15.23;;;38.40;73.70;;;;;;5094393;28;20055;-74
2023/08/26 12:53:24;;;;;;;20.85;15.43;;;38.40;73.20;;;;;;5096333;28;20498;-80
2023/08/26 12:56:28;;;;;;;18.02;16.02;;;37.90;73.60;;;;;;5094090;28;20039;-79
2023/08/26 12:59:33;;;;;;;16.15;14.70;;;37.40;74.30;;;;;;5095444;28;20506;-81
2023/08/26 13:02:37;;;;;;;19.85;14.95;;;37.00;75.30;;;;;;5095440;28;20047;-79
2023/08/26 13:05:41;;;;;;;20.20;14.60;;;36.60;75.10;;;;;;5095015;28;20522;-79
2023/08/26 13:08:45;;;;;;;19.77;15.02;;;36.40;76.30;;;;;;5094271;28;20035;-79
2023/08/26 13:11:52;;;;;;;19.88;14.05;;;36.20;76.90;;;;;;5094564;28;20039;-78
2023/08/26 13:14:56;;;;;;;17.52;14.05;;;36.00;76.50;;;;;;5096152;28;20051;-79
2023/08/26 13:18:00;;;;;;;22.25;14.25;;;35.90;76.00;;;;;;5095283;28;20043;-78
2023/08/26 13:21:04;;;;;;;20.35;14.38;;;35.80;77.10;;;;;;5095773;28;20047;-79
2023/08/26 13:24:08;;;;;;;18.30;13.50;;;35.70;77.30;;;;;;5093789;28;20047;-83
2023/08/26 13:27:12;;;;;;;14.77;13.30;;;35.60;77.30;;;;;;5094486;28;20044;-79
2023/08/26 13:30:19;;;;;;;13.75;12.38;;;35.50;76.40;;;;;;5092822;28;20043;-78
2023/08/26 13:33:23;;;;;;;13.57;12.18;;;35.50;76.80;;;;;;5094518;28;20067;-77
2023/08/26 13:36:27;;;;;;;16.13;11.23;;;35.40;76.50;;;;;;5093393;28;20059;-78
2023/08/26 13:39:31;;;;;;;18.65;11.15;;;35.30;76.00;;;;;;5094664;28;20047;-78
2023/08/26 13:42:35;;;;;;;18.60;11.70;;;35.30;75.10;;;;;;5094474;28;20035;-78
2023/08/26 13:45:39;;;;;;;11.68;9.98;;;35.20;76.10;;;;;;5094827;28;20047;-79
2023/08/26 13:48:43;;;;;;;14.20;10.20;;;35.20;75.50;;;;;;5093322;28;20529;-77
2023/08/26 13:51:47;;;;;;;12.13;10.70;;;35.10;75.70;;;;;;5094072;28;20392;-78
2023/08/26 13:54:51;;;;;;;12.88;9.73;;;35.00;76.20;;;;;;5095177;28;20490;-77
2023/08/26 13:57:55;;;;;;;16.00;10.23;;;35.00;75.70;;;;;;5093989;28;20050;-78
2023/08/26 14:00:59;;;;;;;15.63;9.85;;;35.00;75.10;;;;;;5093397;28;20512;-79
2023/08/26 14:04:03;;;;;;;11.48;9.63;;;35.00;75.50;;;;;;5093349;28;20051;-79
2023/08/26 14:07:07;;;;;;;18.17;10.52;;;35.00;75.40;;;;;;5093307;28;20062;-79
2023/08/26 14:10:11;;;;;;;15.57;10.60;;;35.00;75.40;;;;;;5094113;28;20047;-79
2023/08/26 14:13:15;;;;;;;10.45;9.35;;;35.00;75.80;;;;;;5094531;28;20052;-78
2023/08/26 14:16:20;;;;;;;13.45;8.95;;;35.00;75.90;;;;;;5094577;28;20039;-81
2023/08/26 14:19:24;;;;;;;10.77;9.20;;;35.00;76.20;;;;;;5095136;28;20455;-79
2023/08/26 14:22:28;;;;;;;11.18;9.20;;;34.90;76.30;;;;;;5093892;28;20404;-76
2023/08/26 14:25:32;;;;;;;11.98;9.43;;;34.90;75.90;;;;;;5093279;28;20125;-78
2023/08/26 14:28:36;;;;;;;15.77;9.52;;;34.90;75.30;;;;;;5094796;28;20391;-78
2023/08/26 14:31:40;;;;;;;11.80;10.00;;;34.90;74.70;;;;;;5091974;28;20066;-79
2023/08/26 14:34:44;;;;;;;12.75;10.38;;;34.90;74.10;;;;;;5092010;28;20051;-73
2023/08/26 14:37:48;;;;;;;11.60;10.40;;;34.80;74.00;;;;;;5090778;28;20047;-70
2023/08/26 14:40:53;;;;;;;12.88;10.18;;;34.80;74.20;;;;;;5090495;28;20047;-70
2023/08/26 14:43:57;;;;;;;13.45;10.57;;;34.70;75.20;;;;;;5091252;28;20039;-69
2023/08/26 14:47:01;;;;;;;15.68;11.50;;;34.70;75.20;;;;;;5090326;28;20249;-68
2023/08/26 14:50:08;;;;;;;11.82;9.45;;;34.70;74.80;;;;;;5091386;28;20039;-68
2023/08/26 14:53:12;;;;;;;11.82;9.73;;;34.60;75.00;;;;;;5091496;28;20039;-68
2023/08/26 14:56:16;;;;;;;15.98;10.45;;;34.50;74.60;;;;;;5091579;28;20039;-69
2023/08/26 14:59:20;;;;;;;26.90;10.93;;;34.50;73.50;;;;;;5091225;28;20050;-70
2023/08/26 15:02:24;;;;;;;18.42;10.55;;;34.50;73.70;;;;;;5091331;28;20043;-68
2023/08/26 15:05:28;;;;;;;16.92;10.43;;;34.40;73.50;;;;;;5091046;28;20074;-69
2023/08/26 15:08:32;;;;;;;10.90;9.77;;;34.40;74.50;;;;;;5091588;28;20379;-69
2023/08/26 15:11:36;;;;;;;13.68;11.27;;;34.40;74.70;;;;;;5091071;28;20039;-69
2023/08/26 15:14:41;;;;;;;14.25;11.57;;;34.40;73.70;;;;;;5091454;28;20498;-69
2023/08/26 15:17:45;;;;;;;17.02;11.95;;;34.30;73.20;;;;;;5090989;28;20110;-69
2023/08/26 15:20:49;;;;;;;14.95;10.57;;;34.20;74.20;;;;;;5091056;28;20039;-69
2023/08/26 15:23:53;;;;;;;22.00;11.70;;;34.20;74.60;;;;;;5090888;28;20047;-69
2023/08/26 15:26:57;;;;;;;14.73;11.20;;;34.10;74.80;;;;;;5091050;28;20051;-69
2023/08/26 15:30:03;;;;;;;14.52;11.27;;;34.10;74.50;;;;;;5090832;28;20047;-68
2023/08/26 15:33:07;;;;;;;14.23;10.60;;;34.10;74.40;;;;;;5090741;28;20047;-70
2023/08/26 15:36:11;;;;;;;20.38;11.05;;;34.10;74.40;;;;;;5091015;28;20043;-68
2023/08/26 15:39:15;;;;;;;14.18;11.27;;;34.00;74.30;;;;;;5090852;28;20047;-69